sensor_id;sensor_type;location;lat;lon;timestamp;pressure;altitude;pressure_sealevel;temperature;humidity
5988;BME280;3021;51.000;6.980;2023-02-15T00:01:07;66634.25;;;2.98;100.00
5988;BME280;3021;51.000;6.980;2023-02-15T00:03:33;66623.50;;;2.91;100.00
5988;BME280;3021;51.000;6.980;2023-02-15T00:05:58;66622.34;;;2.90;100.00
5988;BME280;3021;51.000;6.980;2023-02-15T00:08:23;66633.25;;;3.00;100.00
5988;BME280;3021;51.000;6.980;2023-02-15T00:10:49;66635.38;;;2.99;100.00
5988;BME280;3021;51.000;6.980;2023-02-15T00:13:14;66625.03;;;2.90;100.00
5988;BME280;3021;51.000;6.980;2023-02-15T00:15:39;66619.31;;;2.85;100.00
5988;BME280;3021;51.000;6.980;2023-02-15T00:18:05;66609.72;;;2.79;100.00
5988;BME280;3021;51.000;6.980;2023-02-15T00:20:30;66602.44;;;2.74;100.00
5988;BME280;3021;51.000;6.980;2023-02-15T00:22:56;66608.81;;;2.73;100.00
5988;BME280;3021;51.000;6.980;2023-02-15T00:25:21;66606.28;;;2.75;100.00
5988;BME280;3021;51.000;6.980;2023-02-15T00:27:46;66614.72;;;2.81;100.00
5988;BME280;3021;51.000;6.980;2023-02-15T00:30:12;66613.56;;;2.80;100.00
5988;BME280;3021;51.000;6.980;2023-02-15T00:32:37;66615.88;;;2.82;100.00
5988;BME280;3021;51.000;6.980;2023-02-15T00:35:03;66605.72;;;2.75;100.00
5988;BME280;3021;51.000;6.980;2023-02-15T00:37:28;66589.06;;;2.60;100.00
5988;BME280;3021;51.000;6.980;2023-02-15T00:39:54;66590.63;;;2.59;100.00
5988;BME280;3021;51.000;6.980;2023-02-15T00:42:19;66591.34;;;2.62;100.00
5988;BME280;3021;51.000;6.980;2023-02-15T00:44:44;66607.84;;;2.74;100.00
5988;BME280;3021;51.000;6.980;2023-02-15T00:47:10;66587.03;;;2.53;100.00
5988;BME280;3021;51.000;6.980;2023-02-15T00:49:35;66585.47;;;2.54;100.00
5988;BME280;3021;51.000;6.980;2023-02-15T00:52:00;66582.59;;;2.52;100.00
5988;BME280;3021;51.000;6.980;2023-02-15T00:54:26;66593.06;;;2.64;100.00
5988;BME280;3021;51.000;6.980;2023-02-15T00:56:51;66594.06;;;2.62;100.00
5988;BME280;3021;51.000;6.980;2023-02-15T00:59:16;66595.94;;;2.66;100.00
5988;BME280;3021;51.000;6.980;2023-02-15T01:01:41;66590.03;;;2.58;100.00
5988;BME280;3021;51.000;6.980;2023-02-15T01:04:07;66572.59;;;2.48;100.00
5988;BME280;3021;51.000;6.980;2023-02-15T01:06:32;66578.16;;;2.50;100.00
5988;BME280;3021;51.000;6.980;2023-02-15T01:08:57;66567.84;;;2.41;100.00
5988;BME280;3021;51.000;6.980;2023-02-15T01:11:23;66570.53;;;2.41;100.00
5988;BME280;3021;51.000;6.980;2023-02-15T01:13:54;66574.41;;;2.42;100.00
5988;BME280;3021;51.000;6.980;2023-02-15T01:16:21;66567.53;;;2.36;100.00
5988;BME280;3021;51.000;6.980;2023-02-15T01:18:47;66561.53;;;2.35;100.00
5988;BME280;3021;51.000;6.980;2023-02-15T01:21:19;66565.38;;;2.36;100.00
5988;BME280;3021;51.000;6.980;2023-02-15T01:23:45;66562.50;;;2.34;100.00
5988;BME280;3021;51.000;6.980;2023-02-15T01:26:10;66559.47;;;2.29;100.00
5988;BME280;3021;51.000;6.980;2023-02-15T01:28:36;66554.47;;;2.27;100.00
5988;BME280;3021;51.000;6.980;2023-02-15T01:31:09;66557.91;;;2.30;100.00
5988;BME280;3021;51.000;6.980;2023-02-15T01:33:36;66560.06;;;2.29;100.00
5988;BME280;3021;51.000;6.980;2023-02-15T01:36:02;66553.31;;;2.25;100.00
5988;BME280;3021;51.000;6.980;2023-02-15T01:38:28;66539.56;;;2.13;100.00
5988;BME280;3021;51.000;6.980;2023-02-15T01:40:54;66543.00;;;2.16;100.00
5988;BME280;3021;51.000;6.980;2023-02-15T01:43:45;66555.88;;;2.23;100.00
5988;BME280;3021;51.000;6.980;2023-02-15T01:46:12;66533.81;;;2.08;100.00
5988;BME280;3021;51.000;6.980;2023-02-15T01:48:44;66530.56;;;2.07;100.00
5988;BME280;3021;51.000;6.980;2023-02-15T01:51:11;66530.38;;;2.05;100.00
5988;BME280;3021;51.000;6.980;2023-02-15T01:53:48;66544.16;;;2.17;100.00
5988;BME280;3021;51.000;6.980;2023-02-15T01:56:25;66548.72;;;2.21;100.00
5988;BME280;3021;51.000;6.980;2023-02-15T01:58:54;66542.41;;;2.16;100.00
5988;BME280;3021;51.000;6.980;2023-02-15T02:01:22;66551.59;;;2.24;100.00
5988;BME280;3021;51.000;6.980;2023-02-15T02:06:25;66553.50;;;2.28;100.00
5988;BME280;3021;51.000;6.980;2023-02-15T02:08:52;66544.72;;;2.18;100.00
5988;BME280;3021;51.000;6.980;2023-02-15T02:11:18;66540.69;;;2.14;100.00
5988;BME280;3021;51.000;6.980;2023-02-15T02:13:44;66533.44;;;2.10;100.00
5988;BME280;3021;51.000;6.980;2023-02-15T02:17:17;66529.81;;;2.04;100.00
5988;BME280;3021;51.000;6.980;2023-02-15T02:27:39;66531.13;;;2.08;100.00
5988;BME280;3021;51.000;6.980;2023-02-15T02:30:34;66540.56;;;2.12;100.00
5988;BME280;3021;51.000;6.980;2023-02-15T02:35:57;66530.94;;;2.05;100.00
5988;BME280;3021;51.000;6.980;2023-02-15T02:41:42;66529.22;;;2.04;100.00
5988;BME280;3021;51.000;6.980;2023-02-15T02:43:56;66534.38;;;2.08;100.00
5988;BME280;3021;51.000;6.980;2023-02-15T02:48:53;66525.38;;;2.03;100.00
5988;BME280;3021;51.000;6.980;2023-02-15T02:51:19;66537.69;;;2.09;100.00
5988;BME280;3021;51.000;6.980;2023-02-15T02:53:59;66524.41;;;2.04;100.00
5988;BME280;3021;51.000;6.980;2023-02-15T02:56:35;66525.78;;;2.01;100.00
5988;BME280;3021;51.000;6.980;2023-02-15T02:59:05;66522.94;;;1.98;100.00
5988;BME280;3021;51.000;6.980;2023-02-15T03:01:48;66526.38;;;2.01;100.00
5988;BME280;3021;51.000;6.980;2023-02-15T03:04:23;66520.06;;;1.96;100.00
5988;BME280;3021;51.000;6.980;2023-02-15T03:07:00;66511.47;;;1.88;100.00
5988;BME280;3021;51.000;6.980;2023-02-15T03:12:00;66507.59;;;1.87;100.00
5988;BME280;3021;51.000;6.980;2023-02-15T03:14:27;66509.91;;;1.89;100.00
5988;BME280;3021;51.000;6.980;2023-02-15T03:16:54;66516.63;;;1.93;100.00
5988;BME280;3021;51.000;6.980;2023-02-15T03:19:31;66517.78;;;1.94;100.00
5988;BME280;3021;51.000;6.980;2023-02-15T03:22:03;66502.13;;;1.77;100.00
5988;BME280;3021;51.000;6.980;2023-02-15T03:24:37;66493.25;;;1.74;100.00
5988;BME280;3021;51.000;6.980;2023-02-15T03:27:10;66498.44;;;1.79;100.00
5988;BME280;3021;51.000;6.980;2023-02-15T03:29:37;66501.88;;;1.82;100.00
5988;BME280;3021;51.000;6.980;2023-02-15T03:32:06;66509.56;;;1.84;100.00
5988;BME280;3021;51.000;6.980;2023-02-15T03:34:33;66505.31;;;1.85;100.00
5988;BME280;3021;51.000;6.980;2023-02-15T03:39:55;66500.00;;;1.78;100.00
5988;BME280;3021;51.000;6.980;2023-02-15T03:42:42;66501.72;;;1.79;100.00
5988;BME280;3021;51.000;6.980;2023-02-15T03:45:13;66502.28;;;1.80;100.00
5988;BME280;3021;51.000;6.980;2023-02-15T03:47:46;66488.69;;;1.70;100.00
5988;BME280;3021;51.000;6.980;2023-02-15T03:50:18;66486.41;;;1.68;100.00
5988;BME280;3021;51.000;6.980;2023-02-15T03:53:05;66489.09;;;1.68;100.00
5988;BME280;3021;51.000;6.980;2023-02-15T03:55:33;66489.09;;;1.68;100.00
5988;BME280;3021;51.000;6.980;2023-02-15T03:57:59;66487.94;;;1.67;100.00
5988;BME280;3021;51.000;6.980;2023-02-15T04:00:51;66474.03;;;1.52;100.00
5988;BME280;3021;51.000;6.980;2023-02-15T04:04:21;66463.47;;;1.47;100.00
5988;BME280;3021;51.000;6.980;2023-02-15T04:06:26;66475.75;;;1.53;100.00
5988;BME280;3021;51.000;6.980;2023-02-15T04:08:52;66475.19;;;1.53;100.00
5988;BME280;3021;51.000;6.980;2023-02-15T04:11:36;66458.16;;;1.40;100.00
5988;BME280;3021;51.000;6.980;2023-02-15T04:14:01;66452.41;;;1.35;100.00
5988;BME280;3021;51.000;6.980;2023-02-15T04:16:46;66452.41;;;1.35;100.00
5988;BME280;3021;51.000;6.980;2023-02-15T04:19:11;66457.00;;;1.39;100.00
5988;BME280;3021;51.000;6.980;2023-02-15T04:21:56;66467.47;;;1.51;100.00
5988;BME280;3021;51.000;6.980;2023-02-15T04:24:40;66461.59;;;1.43;100.00
5988;BME280;3021;51.000;6.980;2023-02-15T04:27:24;66463.47;;;1.47;100.00
5988;BME280;3021;51.000;6.980;2023-02-15T04:29:49;66471.16;;;1.49;100.00
5988;BME280;3021;51.000;6.980;2023-02-15T04:32:15;66467.13;;;1.46;100.00
5988;BME280;3021;51.000;6.980;2023-02-15T04:34:40;66476.47;;;1.57;100.00
5988;BME280;3021;51.000;6.980;2023-02-15T04:37:05;66466.91;;;1.50;100.00
5988;BME280;3021;51.000;6.980;2023-02-15T04:39:31;66461.16;;;1.45;100.00
5988;BME280;3021;51.000;6.980;2023-02-15T04:41:57;66463.88;;;1.45;100.00
5988;BME280;3021;51.000;6.980;2023-02-15T04:44:22;66451.44;;;1.36;100.00
5988;BME280;3021;51.000;6.980;2023-02-15T04:46:48;66446.09;;;1.29;100.00
5988;BME280;3021;51.000;6.980;2023-02-15T04:49:13;66446.44;;;1.34;100.00
5988;BME280;3021;51.000;6.980;2023-02-15T04:51:39;66443.22;;;1.27;100.00
5988;BME280;3021;51.000;6.980;2023-02-15T04:54:04;66452.41;;;1.35;100.00
5988;BME280;3021;51.000;6.980;2023-02-15T04:56:29;66443.97;;;1.30;100.00
5988;BME280;3021;51.000;6.980;2023-02-15T04:58:55;66454.28;;;1.39;100.00
5988;BME280;3021;51.000;6.980;2023-02-15T05:01:20;66457.56;;;1.40;100.00
5988;BME280;3021;51.000;6.980;2023-02-15T05:03:46;66444.56;;;1.30;100.00
5988;BME280;3021;51.000;6.980;2023-02-15T05:06:11;66442.66;;;1.26;100.00
5988;BME280;3021;51.000;6.980;2023-02-15T05:08:36;66457.56;;;1.40;100.00
5988;BME280;3021;51.000;6.980;2023-02-15T05:11:02;66452.97;;;1.35;100.00
5988;BME280;3021;51.000;6.980;2023-02-15T05:13:27;66441.34;;;1.23;100.00
5988;BME280;3021;51.000;6.980;2023-02-15T05:15:53;66451.09;;;1.31;100.00
5988;BME280;3021;51.000;6.980;2023-02-15T05:18:20;66439.81;;;1.24;100.00
5988;BME280;3021;51.000;6.980;2023-02-15T05:20:46;66444.94;;;1.28;100.00
5988;BME280;3021;51.000;6.980;2023-02-15T05:23:12;66433.06;;;1.20;100.00
5988;BME280;3021;51.000;6.980;2023-02-15T05:25:38;66436.94;;;1.21;100.00
5988;BME280;3021;51.000;6.980;2023-02-15T05:28:23;66437.34;;;1.19;100.00
5988;BME280;3021;51.000;6.980;2023-02-15T05:30:52;66437.09;;;1.24;100.00
5988;BME280;3021;51.000;6.980;2023-02-15T05:33:23;66448.81;;;1.29;100.00
5988;BME280;3021;51.000;6.980;2023-02-15T05:35:48;66441.94;;;1.23;100.00
5988;BME280;3021;51.000;6.980;2023-02-15T05:38:14;66443.22;;;1.27;100.00
5988;BME280;3021;51.000;6.980;2023-02-15T05:40:39;66436.38;;;1.20;100.00
5988;BME280;3021;51.000;6.980;2023-02-15T05:43:04;66439.81;;;1.24;100.00
5988;BME280;3021;51.000;6.980;2023-02-15T05:45:30;66432.13;;;1.22;100.00
5988;BME280;3021;51.000;6.980;2023-02-15T05:47:55;66429.47;;;1.14;100.00
5988;BME280;3021;51.000;6.980;2023-02-15T05:50:23;66440.78;;;1.22;100.00
5988;BME280;3021;51.000;6.980;2023-02-15T05:52:48;66435.78;;;1.20;100.00
5988;BME280;3021;51.000;6.980;2023-02-15T05:55:14;66427.19;;;1.12;100.00
5988;BME280;3021;51.000;6.980;2023-02-15T05:57:39;66416.72;;;1.00;100.00
5988;BME280;3021;51.000;6.980;2023-02-15T06:00:05;66422.03;;;1.08;100.00
5988;BME280;3021;51.000;6.980;2023-02-15T06:02:35;66429.06;;;1.16;100.00
5988;BME280;3021;51.000;6.980;2023-02-15T06:05:00;66432.94;;;1.17;100.00
5988;BME280;3021;51.000;6.980;2023-02-15T06:07:26;66436.03;;;1.15;100.00
5988;BME280;3021;51.000;6.980;2023-02-15T06:09:51;66432.34;;;1.17;100.00
5988;BME280;3021;51.000;6.980;2023-02-15T06:12:16;66414.34;;;1.06;100.00
5988;BME280;3021;51.000;6.980;2023-02-15T06:14:42;66418.59;;;1.05;100.00
5988;BME280;3021;51.000;6.980;2023-02-15T06:17:07;66431.78;;;1.16;100.00
5988;BME280;3021;51.000;6.980;2023-02-15T06:19:32;66439.22;;;1.23;100.00
5988;BME280;3021;51.000;6.980;2023-02-15T06:21:58;66441.34;;;1.23;100.00
5988;BME280;3021;51.000;6.980;2023-02-15T06:24:23;66436.63;;;1.16;100.00
5988;BME280;3021;51.000;6.980;2023-02-15T06:26:48;66437.09;;;1.24;100.00
5988;BME280;3021;51.000;6.980;2023-02-15T06:29:14;66428.91;;;1.14;100.00
5988;BME280;3021;51.000;6.980;2023-02-15T06:31:39;66426.47;;;1.09;100.00
5988;BME280;3021;51.000;6.980;2023-02-15T06:34:04;66431.59;;;1.14;100.00
5988;BME280;3021;51.000;6.980;2023-02-15T06:36:31;66421.44;;;1.07;100.00
5988;BME280;3021;51.000;6.980;2023-02-15T06:38:57;66414.75;;;1.03;100.00
5988;BME280;3021;51.000;6.980;2023-02-15T06:41:23;66435.03;;;1.17;100.00
5988;BME280;3021;51.000;6.980;2023-02-15T06:43:48;66428.91;;;1.14;100.00
5988;BME280;3021;51.000;6.980;2023-02-15T06:46:14;66426.22;;;1.14;100.00
5988;BME280;3021;51.000;6.980;2023-02-15T06:48:39;66418.75;;;1.07;100.00
5988;BME280;3021;51.000;6.980;2023-02-15T06:51:05;66426.63;;;1.12;100.00
5988;BME280;3021;51.000;6.980;2023-02-15T06:53:30;66420.31;;;1.06;100.00
5988;BME280;3021;51.000;6.980;2023-02-15T06:56:03;66427.75;;;1.13;100.00
5988;BME280;3021;51.000;6.980;2023-02-15T06:58:38;66430.63;;;1.15;100.00
5988;BME280;3021;51.000;6.980;2023-02-15T07:01:03;66440.78;;;1.22;100.00
5988;BME280;3021;51.000;6.980;2023-02-15T07:03:29;66448.25;;;1.29;100.00
5988;BME280;3021;51.000;6.980;2023-02-15T07:05:56;66448.25;;;1.29;100.00
5988;BME280;3021;51.000;6.980;2023-02-15T07:08:23;66442.84;;;1.29;100.00
5988;BME280;3021;51.000;6.980;2023-02-15T07:10:49;66453.97;;;1.34;100.00
5988;BME280;3021;51.000;6.980;2023-02-15T07:13:15;66456.41;;;1.38;100.00
5988;BME280;3021;51.000;6.980;2023-02-15T07:15:40;66452.56;;;1.37;100.00
5988;BME280;3021;51.000;6.980;2023-02-15T07:18:05;66457.00;;;1.39;100.00
5988;BME280;3021;51.000;6.980;2023-02-15T07:20:31;66453.16;;;1.38;100.00
5988;BME280;3021;51.000;6.980;2023-02-15T07:22:58;66458.28;;;1.43;100.00
5988;BME280;3021;51.000;6.980;2023-02-15T07:25:23;66461.59;;;1.43;100.00
5988;BME280;3021;51.000;6.980;2023-02-15T07:27:55;66467.47;;;1.51;100.00
5988;BME280;3021;51.000;6.980;2023-02-15T07:30:21;66474.94;;;1.58;100.00
5988;BME280;3021;51.000;6.980;2023-02-15T07:32:46;66484.50;;;1.64;100.00
5988;BME280;3021;51.000;6.980;2023-02-15T07:35:30;66490.66;;;1.67;100.00
5988;BME280;3021;51.000;6.980;2023-02-15T07:37:56;66494.84;;;1.73;100.00
5988;BME280;3021;51.000;6.980;2023-02-15T07:40:21;66493.09;;;1.71;100.00
5988;BME280;3021;51.000;6.980;2023-02-15T07:42:48;66500.16;;;1.80;100.00
5988;BME280;3021;51.000;6.980;2023-02-15T07:45:13;66512.19;;;1.91;100.00
5988;BME280;3021;51.000;6.980;2023-02-15T07:47:39;66530.94;;;2.05;100.00
5988;BME280;3021;51.000;6.980;2023-02-15T07:50:04;66537.25;;;2.11;100.00
5988;BME280;3021;51.000;6.980;2023-02-15T07:52:30;66550.22;;;2.28;100.00
5988;BME280;3021;51.000;6.980;2023-02-15T07:54:55;66596.94;;;2.65;100.00
5988;BME280;3021;51.000;6.980;2023-02-15T07:57:21;66725.13;;;3.82;100.00
5988;BME280;3021;51.000;6.980;2023-02-15T07:59:46;66996.59;;;6.25;100.00
5988;BME280;3021;51.000;6.980;2023-02-15T08:02:14;67129.09;;;7.43;100.00
5988;BME280;3021;51.000;6.980;2023-02-15T08:04:40;67241.69;;;8.46;100.00
5988;BME280;3021;51.000;6.980;2023-02-15T08:07:05;67163.50;;;7.72;100.00
5988;BME280;3021;51.000;6.980;2023-02-15T08:09:31;67129.25;;;7.46;100.00
5988;BME280;3021;51.000;6.980;2023-02-15T08:11:57;67126.91;;;7.44;100.00
5988;BME280;3021;51.000;6.980;2023-02-15T08:14:22;67129.81;;;7.47;100.00
5988;BME280;3021;51.000;6.980;2023-02-15T08:16:52;67098.94;;;7.14;100.00
5988;BME280;3021;51.000;6.980;2023-02-15T08:19:20;67022.66;;;6.51;100.00
5988;BME280;3021;51.000;6.980;2023-02-15T08:21:50;66999.03;;;6.30;100.00
5988;BME280;3021;51.000;6.980;2023-02-15T08:24:18;66947.22;;;5.83;100.00
5988;BME280;3021;51.000;6.980;2023-02-15T08:26:44;66958.41;;;5.88;100.00
5988;BME280;3021;51.000;6.980;2023-02-15T08:29:12;66947.06;;;5.81;100.00
5988;BME280;3021;51.000;6.980;2023-02-15T08:31:38;66922.31;;;5.59;100.00
5988;BME280;3021;51.000;6.980;2023-02-15T08:34:05;66905.22;;;5.46;100.00
5988;BME280;3021;51.000;6.980;2023-02-15T08:36:31;66942.63;;;5.79;100.00
5988;BME280;3021;51.000;6.980;2023-02-15T08:38:58;67064.84;;;6.91;100.00
5988;BME280;3021;51.000;6.980;2023-02-15T08:41:25;67132.09;;;7.49;100.00
5988;BME280;3021;51.000;6.980;2023-02-15T08:43:53;67198.97;;;8.08;100.00
5988;BME280;3021;51.000;6.980;2023-02-15T08:46:19;67122.47;;;7.42;100.00
5988;BME280;3021;51.000;6.980;2023-02-15T08:48:46;67086.44;;;7.05;100.00
5988;BME280;3021;51.000;6.980;2023-02-15T08:51:19;67108.50;;;7.28;100.00
5988;BME280;3021;51.000;6.980;2023-02-15T08:53:47;67107.34;;;7.26;100.00
5988;BME280;3021;51.000;6.980;2023-02-15T08:56:14;67065.28;;;6.89;100.00
5988;BME280;3021;51.000;6.980;2023-02-15T08:58:40;67058.34;;;6.83;100.00
5988;BME280;3021;51.000;6.980;2023-02-15T09:01:13;67037.63;;;6.64;100.00
5988;BME280;3021;51.000;6.980;2023-02-15T09:03:43;67005.38;;;6.35;100.00
5988;BME280;3021;51.000;6.980;2023-02-15T09:06:09;67122.91;;;7.40;100.00
5988;BME280;3021;51.000;6.980;2023-02-15T09:08:34;67125.91;;;7.46;100.00
5988;BME280;3021;51.000;6.980;2023-02-15T09:11:19;67120.59;;;7.38;100.00
5988;BME280;3021;51.000;6.980;2023-02-15T09:13:51;67139.59;;;7.55;100.00
5988;BME280;3021;51.000;6.980;2023-02-15T09:16:16;67200.72;;;8.10;100.00
5988;BME280;3021;51.000;6.980;2023-02-15T09:18:42;67315.09;;;9.14;100.00
5988;BME280;3021;51.000;6.980;2023-02-15T09:21:13;67346.13;;;9.40;100.00
5988;BME280;3021;51.000;6.980;2023-02-15T09:23:40;67390.59;;;9.79;100.00
5988;BME280;3021;51.000;6.980;2023-02-15T09:26:08;67421.34;;;10.09;100.00
5988;BME280;3021;51.000;6.980;2023-02-15T09:28:34;67455.28;;;10.37;100.00
5988;BME280;3021;51.000;6.980;2023-02-15T09:33:38;67426.97;;;10.12;100.00
5988;BME280;3021;51.000;6.980;2023-02-15T09:36:05;67480.44;;;10.64;100.00
5988;BME280;3021;51.000;6.980;2023-02-15T09:38:31;67447.34;;;10.32;100.00
5988;BME280;3021;51.000;6.980;2023-02-15T09:44:06;67616.75;;;11.83;100.00
5988;BME280;3021;51.000;6.980;2023-02-15T09:52:04;67882.69;;;14.22;100.00
5988;BME280;3021;51.000;6.980;2023-02-15T09:54:52;68044.94;;;15.64;100.00
5988;BME280;3021;51.000;6.980;2023-02-15T09:57:35;68289.19;;;17.85;100.00
5988;BME280;3021;51.000;6.980;2023-02-15T10:05:39;67899.34;;;14.34;100.00
5988;BME280;3021;51.000;6.980;2023-02-15T10:08:11;67843.44;;;13.90;100.00
5988;BME280;3021;51.000;6.980;2023-02-15T10:10:50;67877.47;;;14.17;100.00
5988;BME280;3021;51.000;6.980;2023-02-15T10:13:39;68043.94;;;15.65;100.00
5988;BME280;3021;51.000;6.980;2023-02-15T10:19:13;68243.56;;;17.40;100.00
5988;BME280;3021;51.000;6.980;2023-02-15T10:21:51;68412.25;;;18.89;100.00
5988;BME280;3021;51.000;6.980;2023-02-15T10:27:12;68384.53;;;18.70;100.00
5988;BME280;3021;51.000;6.980;2023-02-15T10:29:47;68326.25;;;18.16;100.00
5988;BME280;3021;51.000;6.980;2023-02-15T10:32:23;68460.34;;;19.39;100.00
5988;BME280;3021;51.000;6.980;2023-02-15T10:35:15;68520.59;;;19.88;100.00
5988;BME280;3021;51.000;6.980;2023-02-15T10:43:41;68430.97;;;19.08;100.00
5988;BME280;3021;51.000;6.980;2023-02-15T10:46:28;68411.19;;;18.91;100.00
5988;BME280;3021;51.000;6.980;2023-02-15T10:51:52;68304.75;;;17.96;100.00
5988;BME280;3021;51.000;6.980;2023-02-15T10:57:26;68237.91;;;17.37;100.00
5988;BME280;3021;51.000;6.980;2023-02-15T11:02:49;68010.13;;;15.33;100.00
5988;BME280;3021;51.000;6.980;2023-02-15T11:05:39;67731.78;;;12.83;100.00
5988;BME280;3021;51.000;6.980;2023-02-15T11:08:09;67590.69;;;11.60;100.00
5988;BME280;3021;51.000;6.980;2023-02-15T11:10:39;67549.50;;;11.21;100.00
5988;BME280;3021;51.000;6.980;2023-02-15T11:13:14;67487.22;;;10.68;100.00
5988;BME280;3021;51.000;6.980;2023-02-15T11:15:57;67438.94;;;10.20;100.00
5988;BME280;3021;51.000;6.980;2023-02-15T11:21:20;67410.22;;;9.97;100.00
5988;BME280;3021;51.000;6.980;2023-02-15T11:23:47;67380.19;;;9.70;100.00
5988;BME280;3021;51.000;6.980;2023-02-15T11:29:08;67430.44;;;10.15;100.00
5988;BME280;3021;51.000;6.980;2023-02-15T11:31:49;67417.28;;;10.06;100.00
5988;BME280;3021;51.000;6.980;2023-02-15T11:34:27;67425.81;;;10.11;100.00
5988;BME280;3021;51.000;6.980;2023-02-15T11:37:00;67393.47;;;9.82;100.00
5988;BME280;3021;51.000;6.980;2023-02-15T11:39:28;67399.84;;;9.88;100.00
5988;BME280;3021;51.000;6.980;2023-02-15T11:41:57;67414.28;;;10.00;100.00
5988;BME280;3021;51.000;6.980;2023-02-15T11:44:29;67420.19;;;10.08;100.00
5988;BME280;3021;51.000;6.980;2023-02-15T11:46:56;67433.47;;;10.20;100.00
5988;BME280;3021;51.000;6.980;2023-02-15T11:51:48;67436.81;;;10.20;100.00
5988;BME280;3021;51.000;6.980;2023-02-15T11:54:20;67448.34;;;10.31;100.00
5988;BME280;3021;51.000;6.980;2023-02-15T11:56:47;67443.72;;;10.27;100.00
5988;BME280;3021;51.000;6.980;2023-02-15T11:59:21;67448.69;;;10.36;100.00
5988;BME280;3021;51.000;6.980;2023-02-15T12:01:49;67467.00;;;10.50;100.00
5988;BME280;3021;51.000;6.980;2023-02-15T12:06:51;67468.00;;;10.48;100.00
5988;BME280;3021;51.000;6.980;2023-02-15T12:09:31;67480.31;;;10.62;100.00
5988;BME280;3021;51.000;6.980;2023-02-15T12:12:32;67476.09;;;10.55;100.00
5988;BME280;3021;51.000;6.980;2023-02-15T12:15:04;67461.66;;;10.43;100.00
5988;BME280;3021;51.000;6.980;2023-02-15T12:17:33;67468.72;;;10.51;100.00
5988;BME280;3021;51.000;6.980;2023-02-15T12:20:02;67491.13;;;10.69;100.00
5988;BME280;3021;51.000;6.980;2023-02-15T12:22:31;67499.22;;;10.76;100.00
5988;BME280;3021;51.000;6.980;2023-02-15T12:27:47;67490.13;;;10.70;100.00
5988;BME280;3021;51.000;6.980;2023-02-15T12:32:53;67510.34;;;10.88;100.00
5988;BME280;3021;51.000;6.980;2023-02-15T12:35:33;67514.81;;;10.90;100.00
5988;BME280;3021;51.000;6.980;2023-02-15T12:38:43;67525.09;;;10.97;100.00
5988;BME280;3021;51.000;6.980;2023-02-15T12:41:43;67516.69;;;10.94;100.00
5988;BME280;3021;51.000;6.980;2023-02-15T12:43:42;67522.34;;;10.97;100.00
5988;BME280;3021;51.000;6.980;2023-02-15T12:46:28;67526.97;;;11.01;100.00
5988;BME280;3021;51.000;6.980;2023-02-15T12:49:17;67527.25;;;11.06;100.00
5988;BME280;3021;51.000;6.980;2023-02-15T12:51:54;67560.50;;;11.31;100.00
5988;BME280;3021;51.000;6.980;2023-02-15T12:57:23;67569.75;;;11.39;100.00
5988;BME280;3021;51.000;6.980;2023-02-15T13:02:52;67583.19;;;11.53;100.00
5988;BME280;3021;51.000;6.980;2023-02-15T13:08:18;67595.34;;;11.64;100.00
5988;BME280;3021;51.000;6.980;2023-02-15T13:11:00;67594.75;;;11.64;100.00
5988;BME280;3021;51.000;6.980;2023-02-15T13:13:35;67603.28;;;11.69;100.00
5988;BME280;3021;51.000;6.980;2023-02-15T13:16:06;67621.22;;;11.85;100.00
5988;BME280;3021;51.000;6.980;2023-02-15T13:18:38;67629.31;;;11.92;100.00
5988;BME280;3021;51.000;6.980;2023-02-15T13:21:18;67637.00;;;12.01;100.00
5988;BME280;3021;51.000;6.980;2023-02-15T13:23:52;67626.75;;;11.95;100.00
5988;BME280;3021;51.000;6.980;2023-02-15T13:26:21;67630.47;;;11.93;100.00
5988;BME280;3021;51.000;6.980;2023-02-15T13:28:50;67628.91;;;11.94;100.00
5988;BME280;3021;51.000;6.980;2023-02-15T13:31:19;67631.81;;;11.97;100.00
5988;BME280;3021;51.000;6.980;2023-02-15T13:33:50;67643.53;;;12.09;100.00
5988;BME280;3021;51.000;6.980;2023-02-15T13:42:12;67673.31;;;12.31;100.00
5988;BME280;3021;51.000;6.980;2023-02-15T13:47:34;67658.56;;;12.23;100.00
5988;BME280;3021;51.000;6.980;2023-02-15T13:53:01;67653.06;;;12.13;100.00
5988;BME280;3021;51.000;6.980;2023-02-15T13:55:47;67655.38;;;12.15;100.00
5988;BME280;3021;51.000;6.980;2023-02-15T14:17:04;67704.59;;;12.59;100.00
5988;BME280;3021;51.000;6.980;2023-02-15T14:19:41;67692.41;;;12.48;100.00
5988;BME280;3021;51.000;6.980;2023-02-15T14:22:29;67695.88;;;12.51;100.00
5988;BME280;3021;51.000;6.980;2023-02-15T14:25:21;67696.59;;;12.54;100.00
5988;BME280;3021;51.000;6.980;2023-02-15T14:28:06;67700.81;;;12.60;100.00
5988;BME280;3021;51.000;6.980;2023-02-15T14:30:37;67708.06;;;12.62;100.00
5988;BME280;3021;51.000;6.980;2023-02-15T14:33:31;67688.50;;;12.47;100.00
5988;BME280;3021;51.000;6.980;2023-02-15T14:35:54;67687.50;;;12.49;100.00
5988;BME280;3021;51.000;6.980;2023-02-15T14:38:44;67686.19;;;12.45;100.00
5988;BME280;3021;51.000;6.980;2023-02-15T14:41:22;67665.94;;;12.27;100.00
5988;BME280;3021;51.000;6.980;2023-02-15T14:44:13;67664.91;;;12.28;100.00
5988;BME280;3021;51.000;6.980;2023-02-15T14:47:01;67661.19;;;12.20;100.00
5988;BME280;3021;51.000;6.980;2023-02-15T14:49:33;67657.97;;;12.22;100.00
5988;BME280;3021;51.000;6.980;2023-02-15T14:52:10;67667.53;;;12.26;100.00
5988;BME280;3021;51.000;6.980;2023-02-15T15:04:35;67649.16;;;12.12;100.00
5988;BME280;3021;51.000;6.980;2023-02-15T15:07:21;67646.25;;;12.09;100.00
5988;BME280;3021;51.000;6.980;2023-02-15T15:09:59;67644.38;;;12.05;100.00
5988;BME280;3021;51.000;6.980;2023-02-15T15:14:51;67640.47;;;12.04;100.00
5988;BME280;3021;51.000;6.980;2023-02-15T15:17:54;67639.19;;;12.01;100.00
5988;BME280;3021;51.000;6.980;2023-02-15T15:31:24;67623.53;;;11.87;100.00
5988;BME280;3021;51.000;6.980;2023-02-15T15:42:31;67592.44;;;11.62;100.00
5988;BME280;3021;51.000;6.980;2023-02-15T15:50:32;67574.50;;;11.46;100.00
5988;BME280;3021;51.000;6.980;2023-02-15T15:52:59;67565.28;;;11.37;100.00
5988;BME280;3021;51.000;6.980;2023-02-15T15:55:29;67566.88;;;11.36;100.00
5988;BME280;3021;51.000;6.980;2023-02-15T15:57:58;67547.78;;;11.19;100.00
5988;BME280;3021;51.000;6.980;2023-02-15T16:02:53;67547.78;;;11.19;100.00
5988;BME280;3021;51.000;6.980;2023-02-15T16:05:19;67538.09;;;11.13;100.00
5988;BME280;3021;51.000;6.980;2023-02-15T16:07:45;67527.13;;;11.03;100.00
5988;BME280;3021;51.000;6.980;2023-02-15T16:10:27;67518.88;;;10.94;100.00
5988;BME280;3021;51.000;6.980;2023-02-15T16:12:57;67495.88;;;10.76;100.00